createdAt,value
2022-10-15T00:00:38.727Z,1003.36
2022-10-15T00:01:38.770Z,1003.33
2022-10-15T00:02:38.697Z,1003.32
2022-10-15T00:03:38.687Z,1003.33
2022-10-15T00:04:38.688Z,1003.33
2022-10-15T00:05:38.692Z,1003.28
2022-10-15T00:06:38.659Z,1003.28
2022-10-15T00:07:38.648Z,1003.25
2022-10-15T00:08:38.648Z,1003.27
2022-10-15T00:09:38.608Z,1003.24
2022-10-15T00:10:38.629Z,1003.24
2022-10-15T00:11:38.597Z,1003.19
2022-10-15T00:12:38.579Z,1003.18
2022-10-15T00:13:38.569Z,1003.17
2022-10-15T00:14:38.558Z,1003.14
2022-10-15T00:15:38.541Z,1003.15
2022-10-15T00:16:38.549Z,1003.15
2022-10-15T00:17:38.528Z,1003.16
2022-10-15T00:18:38.497Z,1003.09
2022-10-15T00:19:38.490Z,1003.11
2022-10-15T00:20:38.459Z,1003.14
2022-10-15T00:21:38.472Z,1003.12
2022-10-15T00:22:38.459Z,1003.08
2022-10-15T00:23:38.429Z,1003.08
2022-10-15T00:24:38.413Z,1003.05
2022-10-15T00:25:38.404Z,1003.04
2022-10-15T00:26:38.391Z,1003.02
2022-10-15T00:27:38.407Z,1003.00
2022-10-15T00:28:38.434Z,1003.02
2022-10-15T00:29:38.360Z,1002.99
2022-10-15T00:30:38.341Z,1002.97
2022-10-15T00:31:38.351Z,1002.94
2022-10-15T00:32:38.331Z,1002.95
2022-10-15T00:33:38.311Z,1002.96
2022-10-15T00:34:38.291Z,1002.94
2022-10-15T00:35:38.280Z,1002.93
2022-10-15T00:36:38.258Z,1002.93
2022-10-15T00:37:38.256Z,1002.89
2022-10-15T00:38:38.253Z,1002.94
2022-10-15T00:39:38.222Z,1002.93
2022-10-15T00:40:38.228Z,1002.90
2022-10-15T00:41:38.192Z,1002.89
2022-10-15T00:42:38.189Z,1002.91
2022-10-15T00:43:38.212Z,1002.88
2022-10-15T00:44:38.161Z,1002.88
2022-10-15T00:45:38.154Z,1002.88
2022-10-15T00:46:38.131Z,1002.90
2022-10-15T00:47:38.123Z,1002.86
2022-10-15T00:48:38.104Z,1002.84
2022-10-15T00:49:38.111Z,1002.89
2022-10-15T00:50:38.085Z,1002.82
2022-10-15T00:51:38.081Z,1002.81
2022-10-15T00:52:38.048Z,1002.81
2022-10-15T00:53:38.061Z,1002.79
2022-10-15T00:54:38.040Z,1002.76
2022-10-15T00:55:38.028Z,1002.79
2022-10-15T00:56:38.001Z,1002.75
2022-10-15T00:57:37.994Z,1002.80
2022-10-15T00:58:37.970Z,1002.82
2022-10-15T00:59:37.981Z,1002.86
2022-10-15T01:00:37.952Z,1002.79
2022-10-15T01:01:38.018Z,1002.78
2022-10-15T01:02:37.924Z,1002.86
2022-10-15T01:03:37.914Z,1002.81
2022-10-15T01:04:37.903Z,1002.70
2022-10-15T01:05:37.903Z,1002.71
2022-10-15T01:06:37.874Z,1002.66
2022-10-15T01:07:37.864Z,1002.67
2022-10-15T01:08:37.841Z,1002.59
2022-10-15T01:09:37.828Z,1002.60
2022-10-15T01:10:37.820Z,1002.53
2022-10-15T01:11:37.836Z,1002.59
2022-10-15T01:12:37.840Z,1002.53
2022-10-15T01:13:37.788Z,1002.52
2022-10-15T01:14:37.771Z,1002.51
2022-10-15T01:15:37.773Z,1002.53
2022-10-15T01:16:37.744Z,1002.48
2022-10-15T01:17:37.726Z,1002.45
2022-10-15T01:18:37.703Z,1002.47
2022-10-15T01:19:37.692Z,1002.46
2022-10-15T01:20:37.692Z,1002.42
2022-10-15T01:21:37.695Z,1002.38
2022-10-15T01:22:37.654Z,1002.40
2022-10-15T01:23:37.642Z,1002.38
2022-10-15T01:24:37.655Z,1002.34
2022-10-15T01:25:37.625Z,1002.35
2022-10-15T01:26:37.679Z,1002.34
2022-10-15T01:27:37.614Z,1002.30
2022-10-15T01:28:38.172Z,1002.33
2022-10-15T01:29:37.578Z,1002.26
2022-10-15T01:30:37.569Z,1002.24
2022-10-15T01:31:37.554Z,1002.26
2022-10-15T01:32:37.544Z,1002.28
2022-10-15T01:33:37.525Z,1002.24
2022-10-15T01:34:37.495Z,1002.28
2022-10-15T01:35:37.493Z,1002.26
2022-10-15T01:36:37.472Z,1002.27
2022-10-15T01:37:37.463Z,1002.28
2022-10-15T01:38:37.466Z,1002.23
2022-10-15T01:39:37.443Z,1002.25
2022-10-15T01:40:37.436Z,1002.27
2022-10-15T01:41:37.446Z,1002.25
2022-10-15T01:42:37.396Z,1002.19
2022-10-15T01:43:37.406Z,1002.22
2022-10-15T01:44:37.373Z,1002.24
2022-10-15T01:45:37.367Z,1002.20
2022-10-15T01:46:44.452Z,1002.21
2022-10-15T01:47:37.331Z,1002.18
2022-10-15T01:48:37.310Z,1002.18
2022-10-15T01:49:37.319Z,1002.19
2022-10-15T01:50:37.291Z,1002.21
2022-10-15T01:51:37.283Z,1002.15
2022-10-15T01:52:37.266Z,1002.10
2022-10-15T01:53:37.271Z,1002.16
2022-10-15T01:54:37.262Z,1002.08
2022-10-15T01:55:37.260Z,1002.12
2022-10-15T01:56:37.211Z,1002.09
2022-10-15T01:57:37.202Z,1002.10
2022-10-15T01:58:37.183Z,1002.03
2022-10-15T01:59:37.192Z,1002.04
2022-10-15T02:00:37.163Z,1002.09
2022-10-15T02:01:37.208Z,1002.08
2022-10-15T02:02:37.137Z,1002.05
2022-10-15T02:03:37.119Z,1002.07
2022-10-15T02:04:37.102Z,1002.03
2022-10-15T02:05:37.092Z,1002.07
2022-10-15T02:06:37.073Z,1002.01
2022-10-15T02:07:37.082Z,1002.04
2022-10-15T02:08:37.042Z,1002.03
2022-10-15T02:09:37.045Z,1002.02
2022-10-15T02:10:37.073Z,1002.02
2022-10-15T02:11:37.041Z,1001.99
2022-10-15T02:12:37.005Z,1002.02
2022-10-15T02:13:36.994Z,1002.01
2022-10-15T02:14:37.042Z,1001.95
2022-10-15T02:15:36.961Z,1001.97
2022-10-15T02:16:36.950Z,1001.95
2022-10-15T02:17:36.944Z,1001.93
2022-10-15T02:18:36.943Z,1001.89
2022-10-15T02:19:36.915Z,1001.94
2022-10-15T02:20:36.914Z,1001.93
2022-10-15T02:21:36.905Z,1001.90
2022-10-15T02:22:36.894Z,1001.88
2022-10-15T02:23:36.905Z,1001.88
2022-10-15T02:24:36.855Z,1001.88
2022-10-15T02:25:36.965Z,1001.81
2022-10-15T02:26:36.841Z,1001.86
2022-10-15T02:27:36.801Z,1001.76
2022-10-15T02:28:36.847Z,1001.81
2022-10-15T02:29:36.777Z,1001.76
2022-10-15T02:30:36.763Z,1001.70
2022-10-15T02:31:36.753Z,1001.71
2022-10-15T02:32:36.733Z,1001.71
2022-10-15T02:33:36.734Z,1001.71
2022-10-15T02:34:36.724Z,1001.67
2022-10-15T02:35:36.706Z,1001.70
2022-10-15T02:36:36.696Z,1001.67
2022-10-15T02:37:36.686Z,1001.70
2022-10-15T02:38:36.685Z,1001.76
2022-10-15T02:39:36.655Z,1001.79
2022-10-15T02:40:36.699Z,1001.75
2022-10-15T02:41:36.636Z,1001.69
2022-10-15T02:42:36.622Z,1001.73
2022-10-15T02:43:36.604Z,1001.74
2022-10-15T02:44:36.581Z,1001.79
2022-10-15T02:45:36.564Z,1001.80
2022-10-15T02:46:36.564Z,1001.77
2022-10-15T02:47:36.546Z,1001.79
2022-10-15T02:48:36.556Z,1001.70
2022-10-15T02:49:36.526Z,1001.76
2022-10-15T02:50:36.516Z,1001.74
2022-10-15T02:51:36.522Z,1001.70
2022-10-15T02:52:36.486Z,1001.73
2022-10-15T02:53:36.468Z,1001.71
2022-10-15T02:54:36.499Z,1001.73
2022-10-15T02:55:36.457Z,1001.75
2022-10-15T02:56:36.449Z,1001.72
2022-10-15T02:57:36.417Z,1001.72
2022-10-15T02:58:36.405Z,1001.75
2022-10-15T02:59:36.441Z,1001.69
2022-10-15T03:00:36.385Z,1001.71
2022-10-15T03:01:36.374Z,1001.71
2022-10-15T03:02:36.354Z,1001.69
2022-10-15T03:03:36.336Z,1001.68
2022-10-15T03:04:36.338Z,1001.70
2022-10-15T03:05:36.323Z,1001.71
2022-10-15T03:06:36.308Z,1001.65
2022-10-15T03:07:36.310Z,1001.69
2022-10-15T03:08:36.372Z,1001.66
2022-10-15T03:09:36.258Z,1001.67
2022-10-15T03:10:36.428Z,1001.63
2022-10-15T03:11:36.237Z,1001.63
2022-10-15T03:12:37.699Z,1001.63
2022-10-15T03:13:36.216Z,1001.62
2022-10-15T03:14:36.199Z,1001.60
2022-10-15T03:15:36.197Z,1001.57
2022-10-15T03:16:36.167Z,1001.59
2022-10-15T03:17:36.167Z,1001.57
2022-10-15T03:18:38.309Z,1001.61
2022-10-15T03:19:36.150Z,1001.59
2022-10-15T03:20:36.121Z,1001.58
2022-10-15T03:21:36.135Z,1001.60
2022-10-15T03:22:36.099Z,1001.56
2022-10-15T03:23:36.085Z,1001.57
2022-10-15T03:24:36.058Z,1001.58
2022-10-15T03:25:36.047Z,1001.61
2022-10-15T03:26:36.036Z,1001.54
2022-10-15T03:27:36.139Z,1001.56
2022-10-15T03:28:36.049Z,1001.59
2022-10-15T03:29:35.989Z,1001.57
2022-10-15T03:30:35.989Z,1001.53
2022-10-15T03:31:35.979Z,1001.53
2022-10-15T03:32:36.457Z,1001.54
2022-10-15T03:33:35.949Z,1001.54
2022-10-15T03:34:35.960Z,1001.55
2022-10-15T03:35:35.941Z,1001.51
2022-10-15T03:36:36.021Z,1001.47
2022-10-15T03:37:35.908Z,1001.43
2022-10-15T03:38:35.929Z,1001.41
2022-10-15T03:39:35.871Z,1001.49
2022-10-15T03:40:35.850Z,1001.42
2022-10-15T03:41:35.866Z,1001.43
2022-10-15T03:42:35.819Z,1001.36
2022-10-15T03:43:38.760Z,1001.39
2022-10-15T03:44:36.866Z,1001.40
2022-10-15T03:45:35.788Z,1001.39
2022-10-15T03:46:35.791Z,1001.34
2022-10-15T03:47:35.772Z,1001.38
2022-10-15T03:48:35.760Z,1001.36
2022-10-15T03:49:35.761Z,1001.36
2022-10-15T03:50:35.789Z,1001.38
2022-10-15T03:51:35.722Z,1001.38
2022-10-15T03:52:35.701Z,1001.40
2022-10-15T03:53:35.689Z,1001.34
2022-10-15T03:54:35.672Z,1001.39
2022-10-15T03:55:35.744Z,1001.38
2022-10-15T03:56:35.652Z,1001.38
2022-10-15T03:57:35.639Z,1001.39
2022-10-15T03:58:35.621Z,1001.38
2022-10-15T03:59:35.658Z,1001.37
2022-10-15T04:00:35.590Z,1001.43
2022-10-15T04:01:35.700Z,1001.45
2022-10-15T04:02:35.571Z,1001.44
2022-10-15T04:03:35.543Z,1001.46
2022-10-15T04:04:35.550Z,1001.47
2022-10-15T04:05:35.521Z,1001.45
2022-10-15T04:06:35.512Z,1001.44
2022-10-15T04:07:35.511Z,1001.46
2022-10-15T04:08:35.504Z,1001.44
2022-10-15T04:09:35.470Z,1001.46
2022-10-15T04:10:35.461Z,1001.46
2022-10-15T04:11:35.440Z,1001.39
2022-10-15T04:12:35.443Z,1001.46
2022-10-15T04:13:35.424Z,1001.46
2022-10-15T04:14:35.402Z,1001.44
2022-10-15T04:15:35.391Z,1001.46
2022-10-15T04:16:35.402Z,1001.47
2022-10-15T04:17:35.381Z,1001.40
2022-10-15T04:18:35.353Z,1001.43
2022-10-15T04:19:35.342Z,1001.41
2022-10-15T04:20:35.324Z,1001.41
2022-10-15T04:21:35.365Z,1001.40
2022-10-15T04:22:35.303Z,1001.42
2022-10-15T04:23:35.383Z,1001.38
2022-10-15T04:24:35.275Z,1001.43
2022-10-15T04:25:35.251Z,1001.50
2022-10-15T04:26:35.252Z,1001.47
2022-10-15T04:27:35.226Z,1001.44
2022-10-15T04:28:35.269Z,1001.51
2022-10-15T04:29:35.203Z,1001.53
2022-10-15T04:30:35.204Z,1001.51
2022-10-15T04:31:35.184Z,1001.48
2022-10-15T04:32:35.169Z,1001.49
2022-10-15T04:33:35.164Z,1001.46
2022-10-15T04:34:35.153Z,1001.46
2022-10-15T04:35:35.153Z,1001.46
2022-10-15T04:36:35.113Z,1001.45
2022-10-15T04:37:35.105Z,1001.48
2022-10-15T04:38:35.091Z,1001.44
2022-10-15T04:39:35.084Z,1001.46
2022-10-15T04:40:35.063Z,1001.47
2022-10-15T04:41:35.045Z,1001.47
2022-10-15T04:42:35.035Z,1001.52
2022-10-15T04:43:35.022Z,1001.48
2022-10-15T04:44:35.027Z,1001.48
2022-10-15T04:45:34.996Z,1001.52
2022-10-15T04:46:34.995Z,1001.49
2022-10-15T04:47:34.967Z,1001.49
2022-10-15T04:48:36.618Z,1001.48
2022-10-15T04:49:35.000Z,1001.49
2022-10-15T04:50:34.943Z,1001.53
2022-10-15T04:51:34.954Z,1001.54
2022-10-15T04:52:34.903Z,1001.56
2022-10-15T04:53:34.887Z,1001.50
2022-10-15T04:54:34.876Z,1001.52
2022-10-15T04:55:34.854Z,1001.47
2022-10-15T04:56:34.866Z,1001.48
2022-10-15T04:57:34.838Z,1001.50
2022-10-15T04:58:34.837Z,1001.52
2022-10-15T04:59:34.817Z,1001.50
2022-10-15T05:00:34.808Z,1001.54
2022-10-15T05:01:34.797Z,1001.54
2022-10-15T05:02:34.818Z,1001.56
2022-10-15T05:03:36.522Z,1001.55
2022-10-15T05:04:34.766Z,1001.56
2022-10-15T05:05:34.739Z,1001.57
2022-10-15T05:06:34.736Z,1001.57
2022-10-15T05:07:34.699Z,1001.56
2022-10-15T05:08:34.697Z,1001.60
2022-10-15T05:09:37.025Z,1001.58
2022-10-15T05:10:34.666Z,1001.65
2022-10-15T05:11:34.676Z,1001.59
2022-10-15T05:12:34.671Z,1001.55
2022-10-15T05:13:34.629Z,1001.57
2022-10-15T05:14:34.618Z,1001.60
2022-10-15T05:15:34.620Z,1001.54
2022-10-15T05:16:34.626Z,1001.58
2022-10-15T05:17:34.865Z,1001.56
2022-10-15T05:18:34.577Z,1001.51
2022-10-15T05:19:34.579Z,1001.50
2022-10-15T05:20:34.548Z,1001.51
2022-10-15T05:21:34.607Z,1001.48
2022-10-15T05:22:34.507Z,1001.47
2022-10-15T05:23:34.507Z,1001.50
2022-10-15T05:24:34.486Z,1001.49
2022-10-15T05:25:34.463Z,1001.50
2022-10-15T05:26:34.460Z,1001.50
2022-10-15T05:27:34.450Z,1001.53
2022-10-15T05:28:34.505Z,1001.52
2022-10-15T05:29:34.439Z,1001.52
2022-10-15T05:30:34.415Z,1001.56
2022-10-15T05:31:34.397Z,1001.53
2022-10-15T05:32:34.397Z,1001.53
2022-10-15T05:33:34.425Z,1001.56
2022-10-15T05:34:34.444Z,1001.54
2022-10-15T05:35:34.338Z,1001.52
2022-10-15T05:36:34.327Z,1001.56
2022-10-15T05:37:34.316Z,1001.60
2022-10-15T05:38:34.309Z,1001.58
2022-10-15T05:39:34.301Z,1001.58
2022-10-15T05:40:34.280Z,1001.62
2022-10-15T05:41:34.282Z,1001.63
2022-10-15T05:42:34.251Z,1001.65
2022-10-15T05:43:37.372Z,1001.67
2022-10-15T05:44:35.240Z,1001.67
2022-10-15T05:45:34.210Z,1001.71
2022-10-15T05:46:34.209Z,1001.71
2022-10-15T05:47:34.230Z,1001.72
2022-10-15T05:48:34.188Z,1001.75
2022-10-15T05:49:34.172Z,1001.73
2022-10-15T05:50:34.158Z,1001.70
2022-10-15T05:51:34.131Z,1001.69
2022-10-15T05:52:34.126Z,1001.74
2022-10-15T05:53:34.108Z,1001.70
2022-10-15T05:54:34.101Z,1001.76
2022-10-15T05:55:34.125Z,1001.79
2022-10-15T05:56:34.071Z,1001.80
2022-10-15T05:57:34.063Z,1001.83
2022-10-15T05:58:37.319Z,1001.85
2022-10-15T05:59:34.042Z,1001.81
2022-10-15T06:00:34.021Z,1001.80
2022-10-15T06:01:34.092Z,1001.83
2022-10-15T06:02:34.206Z,1001.80
2022-10-15T06:03:33.971Z,1001.78
2022-10-15T06:04:35.782Z,1001.80
2022-10-15T06:05:33.964Z,1001.85
2022-10-15T06:06:33.951Z,1001.80
2022-10-15T06:07:33.919Z,1001.85
2022-10-15T06:08:33.911Z,1001.85
2022-10-15T06:09:33.892Z,1001.89
2022-10-15T06:10:33.892Z,1001.89
2022-10-15T06:11:33.883Z,1001.87
2022-10-15T06:12:33.871Z,1001.86
2022-10-15T06:13:33.854Z,1001.87
2022-10-15T06:14:33.843Z,1001.94
2022-10-15T06:15:33.833Z,1001.96
2022-10-15T06:16:33.830Z,1001.97
2022-10-15T06:17:33.802Z,1002.00
2022-10-15T06:18:33.781Z,1002.00
2022-10-15T06:19:33.771Z,1002.01
2022-10-15T06:20:33.753Z,1002.02
2022-10-15T06:21:33.792Z,1001.99
2022-10-15T06:22:33.767Z,1001.99
2022-10-15T06:23:33.703Z,1002.05
2022-10-15T06:24:33.702Z,1002.03
2022-10-15T06:25:33.683Z,1002.07
2022-10-15T06:26:33.694Z,1002.05
2022-10-15T06:27:33.668Z,1002.04
2022-10-15T06:28:33.696Z,1002.09
2022-10-15T06:29:35.143Z,1002.10
2022-10-15T06:30:33.656Z,1002.15
2022-10-15T06:31:33.633Z,1002.08
2022-10-15T06:32:33.595Z,1002.10
2022-10-15T06:33:33.593Z,1002.07
2022-10-15T06:34:33.565Z,1002.11
2022-10-15T06:35:33.562Z,1002.03
2022-10-15T06:36:33.553Z,1002.03
2022-10-15T06:37:33.532Z,1002.05
2022-10-15T06:38:33.521Z,1002.08
2022-10-15T06:39:33.503Z,1002.01
2022-10-15T06:40:33.493Z,1002.02
2022-10-15T06:41:33.503Z,1002.07
2022-10-15T06:42:33.475Z,1002.07
2022-10-15T06:43:35.194Z,1002.03
2022-10-15T06:44:33.443Z,1002.11
2022-10-15T06:45:33.433Z,1002.10
2022-10-15T06:46:33.414Z,1002.09
2022-10-15T06:47:33.441Z,1002.09
2022-10-15T06:48:33.393Z,1002.14
2022-10-15T06:49:33.386Z,1002.12
2022-10-15T06:50:33.364Z,1002.13
2022-10-15T06:51:33.353Z,1002.10
2022-10-15T06:52:33.344Z,1002.20
2022-10-15T06:53:33.324Z,1002.19
2022-10-15T06:54:33.303Z,1002.14
2022-10-15T06:55:33.302Z,1002.15
2022-10-15T06:56:33.284Z,1002.19
2022-10-15T06:57:33.279Z,1002.25
2022-10-15T06:58:33.273Z,1002.23
2022-10-15T06:59:33.971Z,1002.22
2022-10-15T07:01:35.256Z,1002.27
2022-10-15T07:02:33.229Z,1002.27
2022-10-15T07:03:33.220Z,1002.31
2022-10-15T07:04:33.176Z,1002.29
2022-10-15T07:05:33.167Z,1002.30
2022-10-15T07:06:33.175Z,1002.31
2022-10-15T07:07:33.134Z,1002.25
2022-10-15T07:08:33.124Z,1002.29
2022-10-15T07:09:33.096Z,1002.28
2022-10-15T07:10:33.086Z,1002.31
2022-10-15T07:11:33.094Z,1002.35
2022-10-15T07:12:33.056Z,1002.31
2022-10-15T07:13:33.057Z,1002.36
2022-10-15T07:14:33.079Z,1002.35
2022-10-15T07:15:33.058Z,1002.34
2022-10-15T07:16:33.027Z,1002.38
2022-10-15T07:17:33.008Z,1002.41
2022-10-15T07:18:32.997Z,1002.41
2022-10-15T07:19:32.997Z,1002.37
2022-10-15T07:20:32.968Z,1002.44
2022-10-15T07:21:32.959Z,1002.53
2022-10-15T07:22:32.927Z,1002.52
2022-10-15T07:23:32.917Z,1002.53
2022-10-15T07:24:32.917Z,1002.57
2022-10-15T07:25:32.898Z,1002.63
2022-10-15T07:26:32.874Z,1002.58
2022-10-15T07:27:32.869Z,1002.57
2022-10-15T07:28:32.942Z,1002.60
2022-10-15T07:29:32.839Z,1002.56
2022-10-15T07:30:32.849Z,1002.52
2022-10-15T07:31:32.858Z,1002.59
2022-10-15T07:32:32.814Z,1002.58
2022-10-15T07:33:32.789Z,1002.57
2022-10-15T07:34:32.878Z,1002.51
2022-10-15T07:35:32.778Z,1002.51
2022-10-15T07:36:32.769Z,1002.51
2022-10-15T07:37:32.746Z,1002.50
2022-10-15T07:38:32.727Z,1002.51
2022-10-15T07:39:34.570Z,1002.52
2022-10-15T07:40:32.709Z,1002.47
2022-10-15T07:41:32.681Z,1002.42
2022-10-15T07:42:32.672Z,1002.42
2022-10-15T07:43:32.665Z,1002.42
2022-10-15T07:44:32.660Z,1002.44
2022-10-15T07:45:32.638Z,1002.40
2022-10-15T07:46:40.459Z,1002.43
2022-10-15T07:47:34.109Z,1002.43
2022-10-15T07:48:32.597Z,1002.43
2022-10-15T07:49:32.578Z,1002.40
2022-10-15T07:50:35.512Z,1002.42
2022-10-15T07:51:32.586Z,1002.42
2022-10-15T07:52:32.531Z,1002.43
2022-10-15T07:53:32.527Z,1002.38
2022-10-15T07:54:32.519Z,1002.41
2022-10-15T07:55:32.499Z,1002.45
2022-10-15T07:56:32.490Z,1002.46
2022-10-15T07:57:32.479Z,1002.42
2022-10-15T07:58:32.478Z,1002.38
2022-10-15T07:59:32.450Z,1002.35
2022-10-15T08:01:32.438Z,1002.36
2022-10-15T08:02:32.407Z,1002.38
2022-10-15T08:03:32.396Z,1002.36
2022-10-15T08:04:32.368Z,1002.37
2022-10-15T08:05:32.368Z,1002.37
2022-10-15T08:06:32.349Z,1002.35
2022-10-15T08:07:32.379Z,1002.35
2022-10-15T08:08:32.330Z,1002.38
2022-10-15T08:09:32.327Z,1002.35
2022-10-15T08:10:32.304Z,1002.39
2022-10-15T08:11:32.292Z,1002.36
2022-10-15T08:12:32.302Z,1002.41
2022-10-15T08:13:32.292Z,1002.41
2022-10-15T08:14:32.252Z,1002.41
2022-10-15T08:15:32.242Z,1002.39
2022-10-15T08:16:32.210Z,1002.43
2022-10-15T08:17:32.238Z,1002.46
2022-10-15T08:18:32.210Z,1002.46
2022-10-15T08:19:32.212Z,1002.45
2022-10-15T08:20:32.162Z,1002.41
2022-10-15T08:21:32.152Z,1002.39
2022-10-15T08:22:32.140Z,1002.40
2022-10-15T08:23:32.131Z,1002.41
2022-10-15T08:24:32.136Z,1002.43
2022-10-15T08:25:32.112Z,1002.42
2022-10-15T08:26:32.090Z,1002.41
2022-10-15T08:27:32.082Z,1002.51
2022-10-15T08:28:32.116Z,1002.45
2022-10-15T08:29:32.063Z,1002.47
2022-10-15T08:30:32.043Z,1002.45
2022-10-15T08:31:32.038Z,1002.49
2022-10-15T08:32:32.011Z,1002.45
2022-10-15T08:33:31.992Z,1002.45
2022-10-15T08:34:32.003Z,1002.55
2022-10-15T08:35:31.961Z,1002.48
2022-10-15T08:36:31.955Z,1002.55
2022-10-15T08:37:31.949Z,1002.58
2022-10-15T08:38:31.934Z,1002.59
2022-10-15T08:39:31.942Z,1002.58
2022-10-15T08:40:31.903Z,1002.58
2022-10-15T08:41:31.922Z,1002.59
2022-10-15T08:42:31.890Z,1002.61
2022-10-15T08:43:31.864Z,1002.59
2022-10-15T08:44:31.864Z,1002.61
2022-10-15T08:45:31.835Z,1002.68
2022-10-15T08:46:31.827Z,1002.66
2022-10-15T08:47:31.807Z,1002.71
2022-10-15T08:48:31.816Z,1002.63
2022-10-15T08:49:31.786Z,1002.65
2022-10-15T08:50:31.796Z,1002.64
2022-10-15T08:51:31.765Z,1002.62
2022-10-15T08:52:31.757Z,1002.60
2022-10-15T08:53:31.727Z,1002.57
2022-10-15T08:54:31.713Z,1002.62
2022-10-15T08:55:31.706Z,1002.58
2022-10-15T08:56:31.698Z,1002.61
2022-10-15T08:57:31.673Z,1002.63
2022-10-15T08:58:31.683Z,1002.62
2022-10-15T08:59:31.656Z,1002.64
2022-10-15T09:00:31.635Z,1002.60
2022-10-15T09:01:31.625Z,1002.62
2022-10-15T09:02:31.708Z,1002.62
2022-10-15T09:03:31.605Z,1002.68
2022-10-15T09:04:31.581Z,1002.67
2022-10-15T09:05:31.570Z,1002.67
2022-10-15T09:06:31.549Z,1002.68
2022-10-15T09:07:31.545Z,1002.69
2022-10-15T09:08:31.610Z,1002.66
2022-10-15T09:09:31.575Z,1002.70
2022-10-15T09:10:31.512Z,1002.67
2022-10-15T09:11:31.509Z,1002.66
2022-10-15T09:12:31.466Z,1002.65
2022-10-15T09:13:31.522Z,1002.65
2022-10-15T09:14:31.447Z,1002.64
2022-10-15T09:15:31.448Z,1002.71
2022-10-15T09:16:32.907Z,1002.69
2022-10-15T09:17:31.431Z,1002.68
2022-10-15T09:18:31.398Z,1002.69
2022-10-15T09:19:31.437Z,1002.70
2022-10-15T09:20:31.389Z,1002.71
2022-10-15T09:21:31.369Z,1002.72
2022-10-15T09:22:31.353Z,1002.75
2022-10-15T09:23:31.350Z,1002.76
2022-10-15T09:24:31.318Z,1002.82
2022-10-15T09:25:32.127Z,1002.79
2022-10-15T09:26:31.320Z,1002.84
2022-10-15T09:27:31.290Z,1002.83
2022-10-15T09:28:31.287Z,1002.82
2022-10-15T09:29:31.250Z,1002.82
2022-10-15T09:30:31.251Z,1002.83
2022-10-15T09:31:31.234Z,1002.87
2022-10-15T09:32:31.242Z,1002.89
2022-10-15T09:33:31.208Z,1002.81
2022-10-15T09:34:31.190Z,1002.80
2022-10-15T09:35:31.215Z,1002.81
2022-10-15T09:36:31.164Z,1002.83
2022-10-15T09:37:31.152Z,1002.80
2022-10-15T09:38:31.145Z,1002.81
2022-10-15T09:39:31.140Z,1002.79
2022-10-15T09:40:31.105Z,1002.76
2022-10-15T09:41:31.110Z,1002.70
2022-10-15T09:42:31.083Z,1002.70
2022-10-15T09:43:31.080Z,1002.70
2022-10-15T09:44:31.093Z,1002.74
2022-10-15T09:45:31.063Z,1002.73
2022-10-15T09:46:31.032Z,1002.76
2022-10-15T09:47:31.024Z,1002.76
2022-10-15T09:48:31.014Z,1002.75
2022-10-15T09:49:36.139Z,1002.72
2022-10-15T09:50:32.024Z,1002.78
2022-10-15T09:51:30.963Z,1002.82
2022-10-15T09:52:30.951Z,1002.81
2022-10-15T09:53:30.933Z,1002.81
2022-10-15T09:54:30.922Z,1002.78
2022-10-15T09:55:30.934Z,1002.74
2022-10-15T09:56:30.893Z,1002.77
2022-10-15T09:57:30.904Z,1002.73
2022-10-15T09:58:30.865Z,1002.71
2022-10-15T10:00:30.865Z,1002.71
2022-10-15T10:01:30.897Z,1002.73
2022-10-15T10:02:31.011Z,1002.73
2022-10-15T10:03:30.814Z,1002.71
2022-10-15T10:04:30.805Z,1002.75
2022-10-15T10:05:30.810Z,1002.75
2022-10-15T10:06:30.778Z,1002.75
2022-10-15T10:07:30.784Z,1002.78
2022-10-15T10:08:30.749Z,1002.76
2022-10-15T10:09:30.725Z,1002.84
2022-10-15T10:10:30.706Z,1002.84
2022-10-15T10:11:30.703Z,1002.84
2022-10-15T10:12:30.713Z,1002.82
2022-10-15T10:13:30.694Z,1002.86
2022-10-15T10:14:30.681Z,1002.83
2022-10-15T10:15:30.656Z,1002.82
2022-10-15T10:16:30.639Z,1002.83
2022-10-15T10:17:30.647Z,1002.81
2022-10-15T10:18:30.629Z,1002.82
2022-10-15T10:19:30.605Z,1002.85
2022-10-15T10:20:30.659Z,1002.90
2022-10-15T10:21:30.568Z,1002.90
2022-10-15T10:22:30.603Z,1002.89
2022-10-15T10:23:30.539Z,1002.94
2022-10-15T10:24:30.527Z,1002.93
2022-10-15T10:25:30.550Z,1002.95
2022-10-15T10:26:30.507Z,1002.94
2022-10-15T10:27:30.489Z,1002.99
2022-10-15T10:28:30.521Z,1002.93
2022-10-15T10:29:34.815Z,1003.04
2022-10-15T10:30:30.447Z,1003.00
2022-10-15T10:31:30.428Z,1002.96
2022-10-15T10:32:30.422Z,1002.97
2022-10-15T10:33:30.429Z,1002.98
2022-10-15T10:34:30.400Z,1002.93
2022-10-15T10:35:30.390Z,1002.92
2022-10-15T10:36:30.369Z,1002.90
2022-10-15T10:37:30.360Z,1002.93
2022-10-15T10:38:30.363Z,1002.91
2022-10-15T10:39:30.361Z,1002.90
2022-10-15T10:40:30.311Z,1002.88
2022-10-15T10:41:30.310Z,1002.89
2022-10-15T10:42:30.288Z,1002.88
2022-10-15T10:43:30.313Z,1002.89
2022-10-15T10:44:30.281Z,1002.88
2022-10-15T10:45:30.276Z,1002.92
2022-10-15T10:46:30.242Z,1002.90
2022-10-15T10:47:30.223Z,1002.85
2022-10-15T10:48:30.221Z,1002.86
2022-10-15T10:49:30.199Z,1002.91
2022-10-15T10:50:30.201Z,1002.88
2022-10-15T10:51:30.172Z,1002.90
2022-10-15T10:52:30.164Z,1002.92
2022-10-15T10:53:30.142Z,1002.84
2022-10-15T10:54:30.186Z,1002.83
2022-10-15T10:55:30.144Z,1002.83
2022-10-15T10:56:30.113Z,1002.78
2022-10-15T10:57:30.093Z,1002.80
2022-10-15T10:58:30.093Z,1002.75
2022-10-15T10:59:30.063Z,1002.82
2022-10-15T11:00:30.064Z,1002.80
2022-10-15T11:01:30.052Z,1002.80
2022-10-15T11:02:30.034Z,1002.82
2022-10-15T11:03:30.016Z,1002.78
2022-10-15T11:04:30.013Z,1002.80
2022-10-15T11:05:30.015Z,1002.80
2022-10-15T11:06:29.980Z,1002.84
2022-10-15T11:07:29.983Z,1002.88
2022-10-15T11:08:29.954Z,1002.87
2022-10-15T11:09:29.936Z,1002.89
2022-10-15T11:10:29.934Z,1002.89
2022-10-15T11:11:29.906Z,1002.92
2022-10-15T11:12:29.895Z,1002.91
2022-10-15T11:13:31.343Z,1002.90
2022-10-15T11:14:29.877Z,1002.94
2022-10-15T11:15:29.857Z,1003.02
2022-10-15T11:16:29.859Z,1003.00
2022-10-15T11:17:29.836Z,1002.88
2022-10-15T11:18:29.839Z,1002.89
2022-10-15T11:20:48.309Z,1002.87
2022-10-15T11:21:30.785Z,1002.84
2022-10-15T11:22:29.765Z,1002.86
2022-10-15T11:23:29.757Z,1002.82
2022-10-15T11:24:33.519Z,1002.85
2022-10-15T11:25:30.719Z,1002.88
2022-10-15T11:26:34.128Z,1002.85
2022-10-15T11:27:30.688Z,1002.88
2022-10-15T11:28:29.817Z,1002.87
2022-10-15T11:29:29.689Z,1002.91
2022-10-15T11:30:29.669Z,1002.91
2022-10-15T11:31:29.668Z,1002.88
2022-10-15T11:32:42.168Z,1002.95
2022-10-15T11:33:30.638Z,1002.87
2022-10-15T11:34:29.640Z,1002.86
2022-10-15T11:35:48.488Z,1002.85
2022-10-15T11:36:30.578Z,1002.84
2022-10-15T11:37:29.566Z,1002.85
2022-10-15T11:38:29.563Z,1002.85
2022-10-15T11:39:29.558Z,1002.84
2022-10-15T11:41:29.511Z,1002.81
2022-10-15T11:42:29.499Z,1002.79
2022-10-15T11:43:29.478Z,1002.84
2022-10-15T11:44:29.502Z,1002.78
2022-10-15T11:45:29.465Z,1002.75
2022-10-15T11:46:29.478Z,1002.73
2022-10-15T11:47:29.452Z,1002.75
2022-10-15T11:48:29.438Z,1002.76
2022-10-15T11:49:29.454Z,1002.74
2022-10-15T11:50:29.402Z,1002.79
2022-10-15T11:51:29.411Z,1002.78
2022-10-15T11:52:29.384Z,1002.76
2022-10-15T11:53:29.353Z,1002.76
2022-10-15T11:54:29.342Z,1002.77
2022-10-15T11:55:29.342Z,1002.77
2022-10-15T11:56:30.277Z,1002.81
2022-10-15T11:57:29.308Z,1002.78
2022-10-15T11:58:29.292Z,1002.80
2022-10-15T11:59:29.284Z,1002.73
2022-10-15T12:00:29.271Z,1002.71
2022-10-15T12:01:29.263Z,1002.73
2022-10-15T12:02:29.251Z,1002.70
2022-10-15T12:03:29.232Z,1002.72
2022-10-15T12:04:31.854Z,1002.72
2022-10-15T12:05:29.203Z,1002.74
2022-10-15T12:06:29.202Z,1002.66
2022-10-15T12:07:29.184Z,1002.66
2022-10-15T12:08:29.169Z,1002.66
2022-10-15T12:09:29.158Z,1002.66
2022-10-15T12:10:29.154Z,1002.60